createdAt,value
2023-02-07T00:03:13.602Z,103115.98
2023-02-07T00:06:42.378Z,103124.45
2023-02-07T00:10:12.698Z,103123.91
2023-02-07T00:13:40.827Z,103126.20
2023-02-07T00:17:07.830Z,103118.38
2023-02-07T00:20:37.786Z,103110.52
2023-02-07T00:24:05.833Z,103113.86
2023-02-07T00:27:33.163Z,103113.51
2023-02-07T00:31:08.977Z,103112.67
2023-02-07T00:34:36.850Z,103115.67
2023-02-07T00:38:04.868Z,103119.20
2023-02-07T00:41:34.566Z,103117.16
2023-02-07T00:45:01.601Z,103118.34
2023-02-07T00:48:29.786Z,103115.81
2023-02-07T00:51:58.080Z,103108.77
2023-02-07T00:55:26.011Z,103105.84
2023-02-07T00:58:53.541Z,103112.38
2023-02-07T01:02:22.172Z,103115.39
2023-02-07T01:05:51.356Z,103116.58
2023-02-07T01:09:18.810Z,103111.59
2023-02-07T01:12:45.851Z,103095.74
2023-02-07T01:16:21.044Z,103101.19
2023-02-07T01:19:49.819Z,103101.38
2023-02-07T01:23:17.476Z,103099.04
2023-02-07T01:26:44.649Z,103102.13
2023-02-07T01:30:13.500Z,103097.02
2023-02-07T01:33:40.843Z,103099.17
2023-02-07T01:37:07.531Z,103108.82
2023-02-07T01:40:38.170Z,103106.19
2023-02-07T01:44:08.979Z,103115.38
2023-02-07T01:47:40.505Z,103110.34
2023-02-07T01:51:09.686Z,103107.34
2023-02-07T01:54:38.274Z,103101.98
2023-02-07T01:58:07.367Z,103092.77
2023-02-07T02:01:36.424Z,103087.06
2023-02-07T02:05:06.709Z,103086.34
2023-02-07T02:08:33.874Z,103077.08
2023-02-07T02:12:25.099Z,103069.70
2023-02-07T02:16:02.026Z,103072.73
2023-02-07T02:20:04.149Z,103069.84
2023-02-07T02:23:44.619Z,103059.10
2023-02-07T02:27:18.893Z,103059.70
2023-02-07T02:31:18.744Z,103061.71
2023-02-07T02:34:53.816Z,103053.79
2023-02-07T02:38:27.618Z,103049.02
2023-02-07T02:42:03.056Z,103048.89
2023-02-07T02:45:34.679Z,103047.02
2023-02-07T02:49:02.298Z,103051.09
2023-02-07T02:52:44.808Z,103049.83
2023-02-07T02:56:53.964Z,103054.92
2023-02-07T03:00:43.048Z,103052.27
2023-02-07T03:04:28.973Z,103044.13
2023-02-07T03:08:05.654Z,103048.04
2023-02-07T03:11:40.607Z,103044.36
2023-02-07T03:15:14.046Z,103057.27
2023-02-07T03:18:50.345Z,103065.13
2023-02-07T03:22:25.322Z,103060.49
2023-02-07T03:25:54.021Z,103061.27
2023-02-07T03:29:24.161Z,103057.69
2023-02-07T03:32:54.042Z,103058.11
2023-02-07T03:36:24.977Z,103061.55
2023-02-07T03:39:52.910Z,103060.34
2023-02-07T03:43:23.894Z,103065.62
2023-02-07T03:46:56.167Z,103056.27
2023-02-07T03:50:22.764Z,103059.20
2023-02-07T03:53:49.959Z,103061.30
2023-02-07T03:57:17.045Z,103050.95
2023-02-07T04:00:43.802Z,103050.20
2023-02-07T04:04:10.953Z,103047.70
2023-02-07T04:07:38.573Z,103047.23
2023-02-07T04:11:07.187Z,103038.94
2023-02-07T04:14:34.035Z,103035.14
2023-02-07T04:18:00.951Z,103033.39
2023-02-07T04:21:27.731Z,103034.11
2023-02-07T04:24:54.403Z,103034.64
2023-02-07T04:28:21.125Z,103037.62
2023-02-07T04:31:47.830Z,103046.10
2023-02-07T04:35:15.040Z,103049.17
2023-02-07T04:38:42.828Z,103052.08
2023-02-07T04:42:09.565Z,103050.12
2023-02-07T04:45:36.844Z,103056.33
2023-02-07T04:49:04.478Z,103057.59
2023-02-07T04:52:31.051Z,103055.30
2023-02-07T04:55:57.992Z,103053.27
2023-02-07T04:59:24.931Z,103051.70
2023-02-07T05:02:51.766Z,103050.46
2023-02-07T05:06:18.539Z,103046.54
2023-02-07T05:09:45.588Z,103050.20
2023-02-07T05:13:12.887Z,103049.61
2023-02-07T05:16:40.397Z,103045.65
2023-02-07T05:20:09.286Z,103044.15
2023-02-07T05:23:36.374Z,103042.60
2023-02-07T05:27:03.604Z,103042.42
2023-02-07T05:30:30.691Z,103037.16
2023-02-07T05:33:57.344Z,103041.25
2023-02-07T05:37:24.078Z,103042.90
2023-02-07T05:40:51.125Z,103050.30
2023-02-07T05:44:17.730Z,103049.20
2023-02-07T05:47:44.413Z,103046.81
2023-02-07T05:51:12.082Z,103047.02
2023-02-07T05:54:38.834Z,103047.98
2023-02-07T05:58:05.272Z,103048.04
2023-02-07T06:01:32.004Z,103051.28
2023-02-07T06:04:58.256Z,103054.77
2023-02-07T06:08:24.842Z,103056.70
2023-02-07T06:11:51.747Z,103054.94
2023-02-07T06:15:18.588Z,103044.92
2023-02-07T06:18:45.587Z,103042.82
2023-02-07T06:22:12.543Z,103046.39
2023-02-07T06:25:39.840Z,103040.55
2023-02-07T06:29:06.932Z,103035.23
2023-02-07T06:32:34.385Z,103036.02
2023-02-07T06:36:00.825Z,103032.06
2023-02-07T06:39:27.243Z,103025.65
2023-02-07T06:42:53.938Z,103032.91
2023-02-07T06:46:21.270Z,103038.30
2023-02-07T06:49:48.446Z,103038.67
2023-02-07T06:53:15.368Z,103041.63
2023-02-07T06:56:43.038Z,103043.97
2023-02-07T07:00:18.163Z,103053.02
2023-02-07T07:03:46.351Z,103057.83
2023-02-07T07:07:13.344Z,103059.12
2023-02-07T07:10:40.969Z,103058.39
2023-02-07T07:14:12.328Z,103058.61
2023-02-07T07:17:39.012Z,103064.64
2023-02-07T07:21:06.004Z,103068.86
2023-02-07T07:24:33.068Z,103065.13
2023-02-07T07:27:59.986Z,103056.80
2023-02-07T07:31:26.615Z,103062.83
2023-02-07T07:34:54.390Z,103066.52
2023-02-07T07:38:21.262Z,103074.44
2023-02-07T07:41:48.099Z,103076.98
2023-02-07T07:45:17.972Z,103072.63
2023-02-07T07:48:44.707Z,103075.13
2023-02-07T07:52:11.867Z,103080.91
2023-02-07T07:55:38.756Z,103083.04
2023-02-07T07:59:12.187Z,103084.52
2023-02-07T08:02:46.953Z,103093.52
2023-02-07T08:06:14.068Z,103095.98
2023-02-07T08:09:41.850Z,103091.83
2023-02-07T08:13:11.254Z,103095.97
2023-02-07T08:16:39.640Z,103105.46
2023-02-07T08:20:09.702Z,103107.80
2023-02-07T08:23:36.626Z,103110.11
2023-02-07T08:27:04.241Z,103112.45
2023-02-07T08:30:31.553Z,103119.78
2023-02-07T08:33:58.294Z,103116.31
2023-02-07T08:37:25.516Z,103109.77
2023-02-07T08:40:52.912Z,103111.75
2023-02-07T08:44:19.431Z,103112.44
2023-02-07T08:47:46.495Z,103123.15
2023-02-07T08:51:13.444Z,103122.77
2023-02-07T08:54:40.933Z,103123.08
2023-02-07T08:58:08.205Z,103122.86
2023-02-07T09:01:35.614Z,103111.37
2023-02-07T09:05:02.480Z,103105.25
2023-02-07T09:08:29.901Z,103109.96
2023-02-07T09:11:56.685Z,103118.43
2023-02-07T09:15:23.225Z,103121.19
2023-02-07T09:18:51.978Z,103118.52
2023-02-07T09:22:18.760Z,103125.19
2023-02-07T09:25:47.585Z,103127.30
2023-02-07T09:29:16.300Z,103126.63
2023-02-07T09:32:45.138Z,103125.98
2023-02-07T09:36:20.536Z,103120.36
2023-02-07T09:39:47.701Z,103118.75
2023-02-07T09:43:29.442Z,103117.00
2023-02-07T09:47:03.895Z,103113.34
2023-02-07T09:50:35.760Z,103114.88
2023-02-07T09:54:07.320Z,103115.34
2023-02-07T09:57:39.326Z,103117.77
2023-02-07T10:01:10.841Z,103115.94
2023-02-07T10:04:42.875Z,103111.74
2023-02-07T10:08:13.853Z,103110.46
2023-02-07T10:11:47.670Z,103106.44
2023-02-07T10:15:32.581Z,103107.22
2023-02-07T10:19:09.366Z,103104.68
2023-02-07T10:22:44.311Z,103099.39
2023-02-07T10:26:23.842Z,103092.71
2023-02-07T10:30:04.836Z,103084.05
2023-02-07T10:33:35.744Z,103072.71
2023-02-07T10:37:05.194Z,103057.98
2023-02-07T10:40:41.677Z,103053.48
2023-02-07T10:44:11.760Z,103049.84
2023-02-07T10:47:42.541Z,103051.33
2023-02-07T10:51:24.650Z,103047.27
2023-02-07T10:54:57.564Z,103049.23
2023-02-07T10:58:39.501Z,103045.77
2023-02-07T11:02:27.605Z,103046.65
2023-02-07T11:06:03.007Z,103040.07
2023-02-07T11:09:30.299Z,103037.98
2023-02-07T11:13:00.623Z,103033.98
2023-02-07T11:16:28.482Z,103035.58
2023-02-07T11:20:06.774Z,103037.81
2023-02-07T11:23:34.402Z,103044.83
2023-02-07T11:27:07.316Z,103048.31
2023-02-07T11:30:38.475Z,103045.06
2023-02-07T11:34:30.426Z,103049.14
2023-02-07T11:38:13.927Z,103037.88
2023-02-07T11:41:41.800Z,103032.13
2023-02-07T11:45:15.265Z,103031.92
2023-02-07T11:48:44.550Z,103029.15
2023-02-07T11:52:12.704Z,103027.42
2023-02-07T11:55:44.594Z,103028.25
2023-02-07T11:59:16.975Z,103027.93
2023-02-07T12:02:46.910Z,103034.13
2023-02-07T12:06:19.041Z,103034.69
2023-02-07T12:09:52.013Z,103028.21
2023-02-07T12:13:26.423Z,103021.55
2023-02-07T12:16:58.292Z,103021.52
2023-02-07T12:20:30.107Z,103019.41
2023-02-07T12:24:02.559Z,103026.78
2023-02-07T12:27:30.782Z,103035.46
2023-02-07T12:31:06.388Z,103034.48
2023-02-07T12:34:38.160Z,103032.87
2023-02-07T12:38:14.894Z,103034.67
2023-02-07T12:41:48.037Z,103035.58
2023-02-07T12:45:19.075Z,103037.08
2023-02-07T12:49:04.587Z,103035.80
2023-02-07T12:52:44.094Z,103037.59
2023-02-07T12:56:24.898Z,103033.21
2023-02-07T13:00:05.229Z,103029.02
2023-02-07T13:03:57.781Z,103029.10
2023-02-07T13:07:39.791Z,103028.48
2023-02-07T13:11:16.971Z,103026.59
2023-02-07T13:14:58.229Z,103028.98
2023-02-07T13:18:31.077Z,103025.16
2023-02-07T13:22:03.352Z,103025.52
2023-02-07T13:25:36.271Z,103025.25
2023-02-07T13:29:06.820Z,103032.89
2023-02-07T13:32:33.851Z,103034.22
2023-02-07T13:36:08.744Z,103030.50
2023-02-07T13:39:51.956Z,103029.75
2023-02-07T13:43:26.202Z,103035.29
2023-02-07T13:47:13.352Z,103037.02
2023-02-07T13:50:52.802Z,103036.13
2023-02-07T13:54:32.085Z,103037.35
2023-02-07T13:58:18.580Z,103040.30
2023-02-07T14:01:54.195Z,103033.45
2023-02-07T14:05:28.887Z,103031.52
2023-02-07T14:09:06.300Z,103032.80
2023-02-07T14:12:37.168Z,103029.94
2023-02-07T14:16:12.216Z,103028.89
2023-02-07T14:19:57.151Z,103027.15
2023-02-07T14:23:23.781Z,103026.13
2023-02-07T14:27:28.182Z,103026.69
2023-02-07T14:31:15.076Z,103025.39
2023-02-07T14:35:06.102Z,103024.20
2023-02-07T14:38:38.039Z,103027.35
2023-02-07T14:42:18.740Z,103032.30
2023-02-07T14:46:05.004Z,103035.31
2023-02-07T14:49:35.210Z,103040.44
2023-02-07T14:53:06.291Z,103035.95
2023-02-07T14:56:42.889Z,103040.54
2023-02-07T15:00:29.116Z,103049.90
2023-02-07T15:04:08.268Z,103046.03
2023-02-07T15:07:35.202Z,103049.86
2023-02-07T15:11:05.330Z,103050.80
2023-02-07T15:14:36.465Z,103054.32
2023-02-07T15:18:06.297Z,103058.02
2023-02-07T15:21:41.862Z,103062.52
2023-02-07T15:25:14.478Z,103060.27
2023-02-07T15:28:41.417Z,103064.88
2023-02-07T15:32:24.073Z,103069.19
2023-02-07T15:35:56.820Z,103068.20
2023-02-07T15:39:25.481Z,103070.89
2023-02-07T15:42:58.439Z,103070.70
2023-02-07T15:46:25.999Z,103069.91
2023-02-07T15:50:02.730Z,103071.52
2023-02-07T15:53:32.076Z,103076.92
2023-02-07T15:57:02.432Z,103081.31
2023-02-07T16:00:33.524Z,103078.13
2023-02-07T16:04:01.757Z,103079.55
2023-02-07T16:07:28.716Z,103080.94
2023-02-07T16:10:56.232Z,103078.83
2023-02-07T16:14:31.860Z,103077.88
2023-02-07T16:17:59.959Z,103080.48
2023-02-07T16:21:29.148Z,103087.40
2023-02-07T16:25:01.287Z,103088.85
2023-02-07T16:28:28.783Z,103092.23
2023-02-07T16:31:57.090Z,103089.70
2023-02-07T16:35:26.220Z,103090.83
2023-02-07T16:38:54.033Z,103094.14
2023-02-07T16:42:21.881Z,103091.11
2023-02-07T16:45:48.744Z,103085.71
2023-02-07T16:49:20.562Z,103093.52
2023-02-07T16:52:49.504Z,103099.74
2023-02-07T16:56:21.043Z,103103.30
2023-02-07T16:59:48.453Z,103103.98
2023-02-07T17:03:17.248Z,103112.83
2023-02-07T17:06:46.248Z,103107.73
2023-02-07T17:10:24.150Z,103109.56
2023-02-07T17:13:50.956Z,103116.14
2023-02-07T17:17:19.524Z,103118.59
2023-02-07T17:20:46.777Z,103113.85
2023-02-07T17:24:14.542Z,103111.47
2023-02-07T17:27:42.090Z,103107.57
2023-02-07T17:31:11.343Z,103100.83
2023-02-07T17:34:39.221Z,103103.27
2023-02-07T17:38:08.219Z,103113.35
2023-02-07T17:41:36.816Z,103116.02
2023-02-07T17:45:05.868Z,103122.73
2023-02-07T17:48:37.848Z,103128.02
2023-02-07T17:52:09.428Z,103132.96
2023-02-07T17:55:38.030Z,103133.81
2023-02-07T17:59:07.346Z,103134.84
2023-02-07T18:02:35.727Z,103134.09
2023-02-07T18:06:02.913Z,103131.79
2023-02-07T18:09:29.903Z,103128.11
2023-02-07T18:12:58.432Z,103128.76
2023-02-07T18:16:29.572Z,103132.47
2023-02-07T18:19:56.548Z,103137.97
2023-02-07T18:23:23.787Z,103147.58
2023-02-07T18:26:53.612Z,103153.96
2023-02-07T18:30:25.022Z,103152.73
2023-02-07T18:33:54.789Z,103154.83
2023-02-07T18:37:26.917Z,103156.95
2023-02-07T18:40:54.758Z,103159.84
2023-02-07T18:44:22.491Z,103161.92
2023-02-07T18:47:52.836Z,103165.77
2023-02-07T18:51:26.466Z,103166.85
2023-02-07T18:54:56.775Z,103168.34
2023-02-07T18:58:27.814Z,103169.96
2023-02-07T19:01:55.187Z,103176.67
2023-02-07T19:05:27.139Z,103186.60
2023-02-07T19:08:57.566Z,103190.44
2023-02-07T19:12:25.979Z,103184.47
2023-02-07T19:15:54.675Z,103184.58
2023-02-07T19:19:23.046Z,103183.83
2023-02-07T19:22:53.293Z,103188.19
2023-02-07T19:26:24.332Z,103190.69
2023-02-07T19:29:52.558Z,103189.67
2023-02-07T19:33:20.672Z,103186.80
2023-02-07T19:36:48.504Z,103183.60
2023-02-07T19:40:22.578Z,103187.93
2023-02-07T19:43:49.914Z,103191.40
2023-02-07T19:47:17.956Z,103196.16
2023-02-07T19:51:04.877Z,103200.19
2023-02-07T19:54:36.020Z,103198.94
2023-02-07T19:58:06.556Z,103193.86
2023-02-07T20:01:39.390Z,103191.59
2023-02-07T20:05:14.650Z,103193.07
2023-02-07T20:08:45.422Z,103192.91
2023-02-07T20:12:18.233Z,103196.70
2023-02-07T20:15:48.826Z,103194.45
2023-02-07T20:19:18.790Z,103190.10
2023-02-07T20:22:46.038Z,103187.14
2023-02-07T20:26:17.679Z,103185.47
2023-02-07T20:29:52.032Z,103185.55
2023-02-07T20:33:20.344Z,103187.52
2023-02-07T20:36:48.640Z,103188.21
2023-02-07T20:40:16.013Z,103192.30
2023-02-07T20:43:45.866Z,103200.27
2023-02-07T20:47:14.023Z,103207.67
2023-02-07T20:50:42.119Z,103207.40
2023-02-07T20:54:10.525Z,103216.55
2023-02-07T20:57:38.608Z,103212.95
2023-02-07T21:01:23.472Z,103214.71
2023-02-07T21:04:51.586Z,103216.69
2023-02-07T21:08:20.355Z,103225.30
2023-02-07T21:11:51.708Z,103232.04
2023-02-07T21:15:23.566Z,103237.61
2023-02-07T21:18:51.991Z,103236.96
2023-02-07T21:22:19.943Z,103232.58
2023-02-07T21:25:49.780Z,103233.15
2023-02-07T21:29:18.961Z,103232.13
2023-02-07T21:32:46.595Z,103229.50
2023-02-07T21:36:17.085Z,103234.50
2023-02-07T21:39:52.575Z,103232.09
2023-02-07T21:43:22.074Z,103235.09
2023-02-07T21:46:51.785Z,103237.55
2023-02-07T21:50:21.473Z,103243.12
2023-02-07T21:53:50.137Z,103243.38
2023-02-07T21:57:22.325Z,103242.94
2023-02-07T22:01:01.182Z,103245.79
2023-02-07T22:04:36.067Z,103250.36
2023-02-07T22:08:12.293Z,103256.46
2023-02-07T22:11:44.897Z,103259.23
2023-02-07T22:15:18.876Z,103256.98
2023-02-07T22:18:48.285Z,103255.13
2023-02-07T22:22:17.039Z,103263.33
2023-02-07T22:25:47.665Z,103270.08
2023-02-07T22:29:16.576Z,103268.00
2023-02-07T22:32:47.764Z,103267.31
2023-02-07T22:36:20.795Z,103266.77
2023-02-07T22:39:51.826Z,103268.41
2023-02-07T22:43:24.474Z,103267.50
2023-02-07T22:46:52.775Z,103271.64
2023-02-07T22:50:23.350Z,103267.55
2023-02-07T22:53:52.612Z,103272.62
2023-02-07T22:57:20.024Z,103272.03
2023-02-07T23:00:48.191Z,103273.76
2023-02-07T23:04:19.468Z,103276.90
2023-02-07T23:07:49.141Z,103278.17
2023-02-07T23:11:18.401Z,103280.67
2023-02-07T23:14:45.293Z,103284.86
2023-02-07T23:18:12.647Z,103285.33
2023-02-07T23:21:41.286Z,103284.65
2023-02-07T23:25:13.223Z,103282.91
2023-02-07T23:28:42.696Z,103279.71
2023-02-07T23:32:10.127Z,103277.80
2023-02-07T23:35:38.704Z,103281.39
2023-02-07T23:39:06.699Z,103284.20
2023-02-07T23:42:33.804Z,103285.64
2023-02-07T23:46:01.395Z,103284.65
2023-02-07T23:49:29.295Z,103288.52
2023-02-07T23:52:58.846Z,103286.23
2023-02-07T23:56:26.434Z,103290.23
2023-02-07T23:59:56.396Z,103290.33
